FPO254 LFBD-LFKJ
Flight info
| Callsign | FPO254 |
|---|---|
| Flight time | 1h 13m |
| Altitude | 33000 |
| Route | OBLOC DCT SECHE DCT SOVET DCT FJR DCT AMFAC DCT RUBAS |
| Aircraft | B738/M-SDE2E3FGHIRWXY/LB1 |
Departure
| Time | 2026-04-26 14:37 |
|---|---|
| Airport | Bordeaux–Mérignac Airport (LFBD) |
Arrival
| Time | 2026-04-26 15:50 |
|---|---|
| Airport | Ajaccio Napoléon Bonaparte airport (LFKJ) |
| Time | Latitude | Longitude | Altitude | Speed | Heading |
|---|---|---|---|---|---|
| 2026-04-26 14:08 | 44.82752 | -0.69645 | 167 ft | 0 kts | 116° |
| 2026-04-26 14:27 | 44.82756 | -0.69658 | 167 ft | 2 kts | 116° |
| 2026-04-26 14:27 | 44.82763 | -0.69678 | 167 ft | 2 kts | 116° |
| 2026-04-26 14:27 | 44.82771 | -0.69699 | 167 ft | 2 kts | 129° |
| 2026-04-26 14:27 | 44.82783 | -0.69712 | 167 ft | 1 kts | 193° |
| 2026-04-26 14:28 | 44.82790 | -0.69709 | 167 ft | 0 kts | 206° |
| 2026-04-26 14:30 | 44.82785 | -0.69713 | 167 ft | 6 kts | 208° |
| 2026-04-26 14:31 | 44.82777 | -0.69867 | 168 ft | 27 kts | 283° |
| 2026-04-26 14:31 | 44.82846 | -0.70171 | 167 ft | 34 kts | 284° |
| 2026-04-26 14:31 | 44.82881 | -0.70455 | 166 ft | 24 kts | 252° |
| 2026-04-26 14:31 | 44.82887 | -0.70678 | 165 ft | 23 kts | 286° |
| 2026-04-26 14:32 | 44.82930 | -0.70879 | 164 ft | 17 kts | 287° |
| 2026-04-26 14:32 | 44.82944 | -0.70947 | 164 ft | 0 kts | 286° |
| 2026-04-26 14:32 | 44.82946 | -0.70949 | 164 ft | 2 kts | 304° |
| 2026-04-26 14:32 | 44.82974 | -0.70936 | 164 ft | 10 kts | 40° |
| 2026-04-26 14:33 | 44.83055 | -0.70816 | 163 ft | 24 kts | 49° |
| 2026-04-26 14:33 | 44.83197 | -0.70612 | 162 ft | 32 kts | 45° |
| 2026-04-26 14:33 | 44.83351 | -0.70389 | 161 ft | 31 kts | 45° |
| 2026-04-26 14:33 | 44.83498 | -0.70178 | 160 ft | 29 kts | 45° |
| 2026-04-26 14:34 | 44.83637 | -0.70010 | 160 ft | 20 kts | 12° |
| 2026-04-26 14:34 | 44.83676 | -0.70016 | 159 ft | 0 kts | 341° |
| 2026-04-26 14:35 | 44.83684 | -0.70020 | 159 ft | 4 kts | 341° |
| 2026-04-26 14:35 | 44.83756 | -0.70061 | 159 ft | 21 kts | 335° |
| 2026-04-26 14:35 | 44.83817 | -0.70176 | 160 ft | 14 kts | 231° |
| 2026-04-26 14:36 | 44.83796 | -0.70207 | 159 ft | 0 kts | 224° |
| 2026-04-26 14:36 | 44.83675 | -0.70373 | 159 ft | 64 kts | 224° |
| 2026-04-26 14:36 | 44.83178 | -0.71090 | 164 ft | 138 kts | 225° |
| 2026-04-26 14:36 | 44.82378 | -0.72211 | 478 ft | 172 kts | 222° |
| 2026-04-26 14:37 | 44.81532 | -0.73262 | 1659 ft | 153 kts | 221° |
| 2026-04-26 14:37 | 44.80760 | -0.74358 | 2294 ft | 164 kts | 226° |
| 2026-04-26 14:37 | 44.79920 | -0.75612 | 2541 ft | 192 kts | 226° |
| 2026-04-26 14:37 | 44.78934 | -0.77056 | 2767 ft | 216 kts | 225° |
| 2026-04-26 14:38 | 44.77840 | -0.78635 | 3038 ft | 232 kts | 224° |
| 2026-04-26 14:38 | 44.76455 | -0.79939 | 3203 ft | 252 kts | 194° |
| 2026-04-26 14:38 | 44.74689 | -0.79897 | 3661 ft | 260 kts | 159° |
| 2026-04-26 14:38 | 44.73650 | -0.79067 | 4131 ft | 260 kts | 137° |
| 2026-04-26 14:39 | 44.72149 | -0.76408 | 5156 ft | 261 kts | 124° |
| 2026-04-26 14:39 | 44.71081 | -0.74310 | 5860 ft | 266 kts | 125° |
| 2026-04-26 14:39 | 44.69980 | -0.72200 | 6645 ft | 268 kts | 126° |
| 2026-04-26 14:39 | 44.68859 | -0.70093 | 7381 ft | 271 kts | 127° |
| 2026-04-26 14:40 | 44.67711 | -0.67957 | 8063 ft | 277 kts | 127° |
| 2026-04-26 14:40 | 44.66594 | -0.65720 | 8765 ft | 282 kts | 116° |
| 2026-04-26 14:40 | 44.66084 | -0.63051 | 9522 ft | 287 kts | 96° |
| 2026-04-26 14:40 | 44.66050 | -0.60219 | 10225 ft | 293 kts | 88° |
| 2026-04-26 14:41 | 44.66162 | -0.57329 | 10588 ft | 312 kts | 86° |
| 2026-04-26 14:41 | 44.66314 | -0.54173 | 10766 ft | 336 kts | 86° |
| 2026-04-26 14:41 | 44.66472 | -0.50799 | 11004 ft | 355 kts | 86° |
| 2026-04-26 14:41 | 44.66620 | -0.47288 | 11555 ft | 363 kts | 86° |
| 2026-04-26 14:42 | 44.66757 | -0.43726 | 12268 ft | 366 kts | 87° |
| 2026-04-26 14:42 | 44.66886 | -0.40136 | 13037 ft | 369 kts | 87° |
| 2026-04-26 14:42 | 44.67010 | -0.36524 | 13781 ft | 373 kts | 87° |
| 2026-04-26 14:42 | 44.67133 | -0.32860 | 14450 ft | 377 kts | 87° |
| 2026-04-26 14:43 | 44.67254 | -0.29162 | 15126 ft | 381 kts | 87° |
| 2026-04-26 14:43 | 44.67376 | -0.25431 | 15832 ft | 384 kts | 87° |
| 2026-04-26 14:43 | 44.67498 | -0.21663 | 16511 ft | 388 kts | 87° |
| 2026-04-26 14:43 | 44.67615 | -0.17860 | 17181 ft | 392 kts | 89° |
| 2026-04-26 14:44 | 44.67285 | -0.14104 | 17787 ft | 397 kts | 109° |
| 2026-04-26 14:44 | 44.66160 | -0.10560 | 18482 ft | 399 kts | 116° |
| 2026-04-26 14:44 | 44.64903 | -0.07060 | 19065 ft | 403 kts | 117° |
| 2026-04-26 14:44 | 44.63621 | -0.03541 | 19638 ft | 407 kts | 117° |
| 2026-04-26 14:45 | 44.62331 | 0.00009 | 20228 ft | 410 kts | 117° |
| 2026-04-26 14:45 | 44.61456 | 0.02431 | 20598 ft | 413 kts | 116° |
| 2026-04-26 14:45 | 44.59735 | 0.07232 | 21305 ft | 418 kts | 116° |
| 2026-04-26 14:45 | 44.58430 | 0.10893 | 21855 ft | 421 kts | 116° |
| 2026-04-26 14:46 | 44.57118 | 0.14580 | 22386 ft | 424 kts | 116° |
| 2026-04-26 14:46 | 44.55794 | 0.18300 | 22906 ft | 427 kts | 116° |
| 2026-04-26 14:46 | 44.54461 | 0.22042 | 23423 ft | 431 kts | 116° |
| 2026-04-26 14:46 | 44.53114 | 0.25818 | 23891 ft | 434 kts | 116° |
| 2026-04-26 14:47 | 44.51771 | 0.29577 | 24319 ft | 437 kts | 116° |
| 2026-04-26 14:47 | 44.50399 | 0.33409 | 24761 ft | 439 kts | 116° |
| 2026-04-26 14:47 | 44.49026 | 0.37242 | 25183 ft | 442 kts | 116° |
| 2026-04-26 14:47 | 44.47642 | 0.41097 | 25590 ft | 444 kts | 115° |
| 2026-04-26 14:48 | 44.46248 | 0.44979 | 25977 ft | 447 kts | 115° |
| 2026-04-26 14:48 | 44.44844 | 0.48879 | 26373 ft | 450 kts | 115° |
| 2026-04-26 14:48 | 44.43505 | 0.52844 | 26751 ft | 452 kts | 110° |
| 2026-04-26 14:48 | 44.42456 | 0.56994 | 27126 ft | 453 kts | 107° |
| 2026-04-26 14:49 | 44.41501 | 0.61208 | 27508 ft | 455 kts | 105° |
| 2026-04-26 14:49 | 44.40567 | 0.65454 | 27877 ft | 458 kts | 105° |
| 2026-04-26 14:49 | 44.39626 | 0.69716 | 28236 ft | 460 kts | 105° |
| 2026-04-26 14:49 | 44.38666 | 0.73991 | 28583 ft | 462 kts | 106° |
| 2026-04-26 14:50 | 44.37699 | 0.78228 | 28937 ft | 465 kts | 106° |
| 2026-04-26 14:50 | 44.36700 | 0.82547 | 29245 ft | 468 kts | 106° |
| 2026-04-26 14:50 | 44.35688 | 0.86884 | 29578 ft | 470 kts | 106° |
| 2026-04-26 14:50 | 44.34673 | 0.91213 | 30062 ft | 468 kts | 106° |
| 2026-04-26 14:51 | 44.33659 | 0.95525 | 30541 ft | 465 kts | 106° |
| 2026-04-26 14:51 | 44.32649 | 0.99810 | 30965 ft | 464 kts | 106° |
| 2026-04-26 14:51 | 44.31639 | 1.04094 | 31325 ft | 464 kts | 106° |
| 2026-04-26 14:51 | 44.30629 | 1.08372 | 31662 ft | 464 kts | 106° |
| 2026-04-26 14:52 | 44.29617 | 1.12649 | 32030 ft | 463 kts | 106° |
| 2026-04-26 14:52 | 44.28607 | 1.16911 | 32424 ft | 462 kts | 106° |
| 2026-04-26 14:52 | 44.27596 | 1.21170 | 32705 ft | 464 kts | 105° |
| 2026-04-26 14:52 | 44.26578 | 1.25454 | 33012 ft | 464 kts | 105° |
| 2026-04-26 14:53 | 44.25571 | 1.29682 | 33155 ft | 467 kts | 105° |
| 2026-04-26 14:53 | 44.23512 | 1.38299 | 33146 ft | 467 kts | 106° |
| 2026-04-26 14:54 | 44.21467 | 1.46815 | 33145 ft | 461 kts | 106° |
| 2026-04-26 14:54 | 44.19427 | 1.55291 | 33161 ft | 461 kts | 105° |
| 2026-04-26 14:55 | 44.17378 | 1.63773 | 33155 ft | 463 kts | 105° |
| 2026-04-26 14:55 | 44.15318 | 1.72273 | 33152 ft | 463 kts | 106° |
| 2026-04-26 14:56 | 44.13243 | 1.80790 | 33154 ft | 464 kts | 106° |
| 2026-04-26 14:56 | 44.11510 | 1.87870 | 33151 ft | 465 kts | 106° |
| 2026-04-26 14:57 | 44.09077 | 1.97779 | 33149 ft | 466 kts | 106° |
| 2026-04-26 14:57 | 44.06974 | 2.06313 | 33144 ft | 466 kts | 106° |
| 2026-04-26 14:58 | 44.05206 | 2.13462 | 33155 ft | 466 kts | 106° |
| 2026-04-26 14:58 | 44.03105 | 2.21935 | 33148 ft | 467 kts | 106° |
| 2026-04-26 14:59 | 44.00980 | 2.30467 | 33169 ft | 467 kts | 107° |
| 2026-04-26 14:59 | 43.98851 | 2.38987 | 33154 ft | 467 kts | 107° |
| 2026-04-26 15:00 | 43.96717 | 2.47498 | 33150 ft | 467 kts | 107° |
| 2026-04-26 15:00 | 43.94574 | 2.56010 | 33151 ft | 467 kts | 107° |
| 2026-04-26 15:01 | 43.92422 | 2.64526 | 33147 ft | 467 kts | 107° |
| 2026-04-26 15:01 | 43.90263 | 2.73040 | 33151 ft | 468 kts | 108° |
| 2026-04-26 15:02 | 43.88109 | 2.81504 | 33132 ft | 469 kts | 108° |
| 2026-04-26 15:02 | 43.85933 | 2.90023 | 33130 ft | 469 kts | 108° |
| 2026-04-26 15:03 | 43.83750 | 2.98538 | 33120 ft | 469 kts | 108° |
| 2026-04-26 15:03 | 43.81558 | 3.07055 | 33127 ft | 469 kts | 109° |
| 2026-04-26 15:04 | 43.79357 | 3.15580 | 33117 ft | 470 kts | 109° |
| 2026-04-26 15:04 | 43.77150 | 3.24097 | 33094 ft | 470 kts | 109° |
| 2026-04-26 15:05 | 43.74949 | 3.32559 | 33102 ft | 471 kts | 109° |
| 2026-04-26 15:05 | 43.72725 | 3.41078 | 33108 ft | 471 kts | 109° |
| 2026-04-26 15:06 | 43.70494 | 3.49596 | 33104 ft | 471 kts | 109° |
| 2026-04-26 15:06 | 43.68255 | 3.58113 | 33091 ft | 472 kts | 109° |
| 2026-04-26 15:07 | 43.64881 | 3.70892 | 33100 ft | 472 kts | 109° |
| 2026-04-26 15:07 | 43.62620 | 3.79417 | 33092 ft | 473 kts | 109° |
| 2026-04-26 15:08 | 43.60354 | 3.87938 | 33091 ft | 473 kts | 110° |
| 2026-04-26 15:08 | 43.57906 | 3.96345 | 33098 ft | 472 kts | 119° |
| 2026-04-26 15:09 | 43.54059 | 4.03604 | 33115 ft | 469 kts | 134° |
| 2026-04-26 15:09 | 43.49697 | 4.10219 | 33105 ft | 469 kts | 134° |
| 2026-04-26 15:10 | 43.46041 | 4.15766 | 33107 ft | 470 kts | 134° |
| 2026-04-26 15:10 | 43.40941 | 4.23594 | 33101 ft | 470 kts | 134° |
| 2026-04-26 15:11 | 43.36584 | 4.30310 | 33104 ft | 471 kts | 134° |
| 2026-04-26 15:11 | 43.32219 | 4.37025 | 33103 ft | 471 kts | 134° |
| 2026-04-26 15:12 | 43.27847 | 4.43733 | 33101 ft | 471 kts | 134° |
| 2026-04-26 15:12 | 43.23490 | 4.50400 | 33109 ft | 471 kts | 134° |
| 2026-04-26 15:13 | 43.19109 | 4.57089 | 33101 ft | 472 kts | 134° |
| 2026-04-26 15:13 | 43.14716 | 4.63781 | 33111 ft | 472 kts | 135° |
| 2026-04-26 15:14 | 43.10346 | 4.70421 | 33104 ft | 472 kts | 135° |
| 2026-04-26 15:14 | 43.05943 | 4.77096 | 33119 ft | 472 kts | 135° |
| 2026-04-26 15:15 | 43.01538 | 4.83760 | 33118 ft | 473 kts | 135° |
| 2026-04-26 15:15 | 42.97117 | 4.90434 | 33120 ft | 473 kts | 135° |
| 2026-04-26 15:16 | 42.92690 | 4.97103 | 33123 ft | 473 kts | 135° |
| 2026-04-26 15:16 | 42.88329 | 5.03847 | 33113 ft | 477 kts | 129° |
| 2026-04-26 15:17 | 42.85560 | 5.10429 | 33125 ft | 487 kts | 115° |
| 2026-04-26 15:17 | 42.82459 | 5.20374 | 33113 ft | 490 kts | 114° |
| 2026-04-26 15:18 | 42.79791 | 5.28924 | 33113 ft | 490 kts | 115° |
| 2026-04-26 15:18 | 42.77081 | 5.37417 | 33120 ft | 489 kts | 115° |
| 2026-04-26 15:19 | 42.74348 | 5.45877 | 33117 ft | 488 kts | 115° |
| 2026-04-26 15:19 | 42.71611 | 5.54316 | 33114 ft | 487 kts | 115° |
| 2026-04-26 15:20 | 42.68873 | 5.62738 | 33112 ft | 486 kts | 115° |
| 2026-04-26 15:20 | 42.66132 | 5.71148 | 33114 ft | 486 kts | 115° |
| 2026-04-26 15:21 | 42.63390 | 5.79537 | 33115 ft | 486 kts | 115° |
| 2026-04-26 15:21 | 42.60643 | 5.87914 | 33115 ft | 485 kts | 115° |
| 2026-04-26 15:22 | 42.57911 | 5.96220 | 33114 ft | 485 kts | 115° |
| 2026-04-26 15:22 | 42.55141 | 6.04616 | 33115 ft | 485 kts | 115° |
| 2026-04-26 15:23 | 42.52381 | 6.12954 | 33111 ft | 484 kts | 115° |
| 2026-04-26 15:23 | 42.49636 | 6.21223 | 33105 ft | 484 kts | 115° |
| 2026-04-26 15:24 | 42.46871 | 6.29528 | 33112 ft | 483 kts | 115° |
| 2026-04-26 15:24 | 42.44102 | 6.37819 | 33107 ft | 483 kts | 115° |
| 2026-04-26 15:25 | 42.42708 | 6.41982 | 32473 ft | 486 kts | 115° |
| 2026-04-26 15:25 | 42.41788 | 6.44730 | 32032 ft | 482 kts | 115° |
| 2026-04-26 15:25 | 42.39941 | 6.50235 | 31035 ft | 479 kts | 115° |
| 2026-04-26 15:25 | 42.38560 | 6.54345 | 30268 ft | 479 kts | 115° |
| 2026-04-26 15:26 | 42.37234 | 6.58453 | 29432 ft | 473 kts | 111° |
| 2026-04-26 15:26 | 42.36095 | 6.62580 | 28888 ft | 465 kts | 110° |
| 2026-04-26 15:26 | 42.35020 | 6.66690 | 28296 ft | 460 kts | 109° |
| 2026-04-26 15:26 | 42.33978 | 6.70745 | 27722 ft | 455 kts | 109° |
| 2026-04-26 15:27 | 42.32945 | 6.74759 | 27137 ft | 450 kts | 110° |
| 2026-04-26 15:27 | 42.31914 | 6.78731 | 26569 ft | 445 kts | 110° |
| 2026-04-26 15:27 | 42.30898 | 6.82605 | 26014 ft | 441 kts | 110° |
| 2026-04-26 15:27 | 42.29871 | 6.86490 | 25464 ft | 437 kts | 110° |
| 2026-04-26 15:28 | 42.28851 | 6.90331 | 24910 ft | 433 kts | 110° |
| 2026-04-26 15:28 | 42.27836 | 6.94136 | 24364 ft | 429 kts | 110° |
| 2026-04-26 15:28 | 42.26826 | 6.97916 | 23793 ft | 426 kts | 110° |
| 2026-04-26 15:28 | 42.25823 | 7.01663 | 23166 ft | 423 kts | 110° |
| 2026-04-26 15:29 | 42.24825 | 7.05387 | 22579 ft | 419 kts | 110° |
| 2026-04-26 15:29 | 42.23836 | 7.09071 | 22015 ft | 415 kts | 110° |
| 2026-04-26 15:29 | 42.21887 | 7.16319 | 20936 ft | 407 kts | 110° |
| 2026-04-26 15:30 | 42.19965 | 7.23442 | 19876 ft | 400 kts | 110° |
| 2026-04-26 15:30 | 42.19016 | 7.26954 | 19355 ft | 397 kts | 110° |
| 2026-04-26 15:30 | 42.18071 | 7.30447 | 18822 ft | 395 kts | 110° |
| 2026-04-26 15:31 | 42.17132 | 7.33910 | 18252 ft | 389 kts | 110° |
| 2026-04-26 15:31 | 42.15327 | 7.40555 | 17162 ft | 366 kts | 110° |
| 2026-04-26 15:31 | 42.14463 | 7.43731 | 16668 ft | 355 kts | 110° |
| 2026-04-26 15:32 | 42.13354 | 7.47799 | 16047 ft | 343 kts | 110° |
| 2026-04-26 15:32 | 42.12011 | 7.52718 | 15296 ft | 330 kts | 110° |
| 2026-04-26 15:32 | 42.11225 | 7.55591 | 14859 ft | 324 kts | 110° |
| 2026-04-26 15:33 | 42.10454 | 7.58409 | 14432 ft | 318 kts | 110° |
| 2026-04-26 15:33 | 42.09691 | 7.61194 | 13997 ft | 313 kts | 110° |
| 2026-04-26 15:33 | 42.08943 | 7.63919 | 13527 ft | 308 kts | 110° |
| 2026-04-26 15:33 | 42.08216 | 7.66567 | 13077 ft | 303 kts | 110° |
| 2026-04-26 15:34 | 42.07490 | 7.69207 | 12643 ft | 298 kts | 111° |
| 2026-04-26 15:34 | 42.06774 | 7.71809 | 12234 ft | 296 kts | 111° |
| 2026-04-26 15:34 | 42.06062 | 7.74391 | 11868 ft | 291 kts | 111° |
| 2026-04-26 15:34 | 42.05365 | 7.76921 | 11448 ft | 284 kts | 111° |
| 2026-04-26 15:35 | 42.04679 | 7.79404 | 11057 ft | 282 kts | 111° |
| 2026-04-26 15:35 | 42.04004 | 7.81846 | 10917 ft | 279 kts | 111° |
| 2026-04-26 15:35 | 42.03318 | 7.84328 | 10793 ft | 285 kts | 111° |
| 2026-04-26 15:35 | 42.02633 | 7.86801 | 10669 ft | 286 kts | 111° |
| 2026-04-26 15:36 | 42.01936 | 7.89317 | 10543 ft | 287 kts | 111° |
| 2026-04-26 15:36 | 42.01240 | 7.91825 | 10417 ft | 286 kts | 111° |
| 2026-04-26 15:36 | 42.00548 | 7.94321 | 10298 ft | 285 kts | 111° |
| 2026-04-26 15:36 | 41.99855 | 7.96814 | 10177 ft | 284 kts | 111° |
| 2026-04-26 15:37 | 41.99159 | 7.99315 | 9879 ft | 285 kts | 111° |
| 2026-04-26 15:37 | 41.98470 | 8.01787 | 9570 ft | 280 kts | 111° |
| 2026-04-26 15:37 | 41.98052 | 8.04302 | 9254 ft | 277 kts | 91° |
| 2026-04-26 15:37 | 41.98154 | 8.06889 | 8998 ft | 278 kts | 87° |
| 2026-04-26 15:38 | 41.98290 | 8.09458 | 8698 ft | 272 kts | 86° |
| 2026-04-26 15:38 | 41.98422 | 8.11922 | 8430 ft | 257 kts | 86° |
| 2026-04-26 15:38 | 41.98541 | 8.14228 | 8171 ft | 243 kts | 86° |
| 2026-04-26 15:38 | 41.98653 | 8.16444 | 7902 ft | 232 kts | 87° |
| 2026-04-26 15:39 | 41.98756 | 8.18557 | 7652 ft | 221 kts | 87° |
| 2026-04-26 15:39 | 41.98853 | 8.20570 | 7420 ft | 211 kts | 87° |
| 2026-04-26 15:39 | 41.98944 | 8.22492 | 7201 ft | 202 kts | 86° |
| 2026-04-26 15:39 | 41.98973 | 8.23121 | 7127 ft | 199 kts | 87° |
| 2026-04-26 15:40 | 41.99112 | 8.26106 | 6793 ft | 186 kts | 86° |
| 2026-04-26 15:40 | 41.99192 | 8.27853 | 6617 ft | 187 kts | 86° |
| 2026-04-26 15:40 | 41.99271 | 8.29592 | 6405 ft | 186 kts | 86° |
| 2026-04-26 15:40 | 41.99349 | 8.31313 | 6213 ft | 183 kts | 86° |
| 2026-04-26 15:41 | 41.99426 | 8.33000 | 6018 ft | 180 kts | 86° |
| 2026-04-26 15:41 | 41.99500 | 8.34651 | 5819 ft | 178 kts | 86° |
| 2026-04-26 15:41 | 41.99575 | 8.36315 | 5576 ft | 180 kts | 87° |
| 2026-04-26 15:41 | 41.99650 | 8.38012 | 5330 ft | 181 kts | 87° |
| 2026-04-26 15:42 | 41.99725 | 8.39696 | 5126 ft | 180 kts | 87° |
| 2026-04-26 15:42 | 41.99799 | 8.41362 | 4989 ft | 175 kts | 87° |
| 2026-04-26 15:42 | 41.99871 | 8.42987 | 4897 ft | 176 kts | 87° |
| 2026-04-26 15:42 | 41.99944 | 8.44648 | 4827 ft | 180 kts | 88° |
| 2026-04-26 15:43 | 42.00017 | 8.46330 | 4738 ft | 180 kts | 88° |
| 2026-04-26 15:43 | 42.00066 | 8.47441 | 4679 ft | 179 kts | 87° |
| 2026-04-26 15:43 | 42.00210 | 8.50763 | 4525 ft | 176 kts | 88° |
| 2026-04-26 15:44 | 42.00304 | 8.52927 | 4414 ft | 175 kts | 88° |
| 2026-04-26 15:44 | 42.00424 | 8.55717 | 4133 ft | 182 kts | 88° |
| 2026-04-26 15:44 | 42.00498 | 8.57428 | 3951 ft | 183 kts | 88° |
| 2026-04-26 15:45 | 42.00639 | 8.60729 | 3596 ft | 167 kts | 88° |
| 2026-04-26 15:45 | 42.00704 | 8.62235 | 3397 ft | 159 kts | 87° |
| 2026-04-26 15:46 | 42.00832 | 8.65157 | 3092 ft | 157 kts | 88° |
| 2026-04-26 15:46 | 42.00802 | 8.66624 | 3058 ft | 159 kts | 100° |
| 2026-04-26 15:46 | 42.00612 | 8.68094 | 3007 ft | 159 kts | 101° |
| 2026-04-26 15:46 | 42.00483 | 8.69052 | 2993 ft | 154 kts | 101° |
| 2026-04-26 15:47 | 42.00230 | 8.70956 | 3003 ft | 155 kts | 101° |
| 2026-04-26 15:47 | 41.99845 | 8.73836 | 3021 ft | 158 kts | 101° |
| 2026-04-26 15:47 | 41.99653 | 8.75296 | 3000 ft | 159 kts | 100° |
| 2026-04-26 15:48 | 41.99452 | 8.76767 | 2537 ft | 165 kts | 101° |
| 2026-04-26 15:48 | 41.99241 | 8.78257 | 2230 ft | 157 kts | 102° |
| 2026-04-26 15:48 | 41.99007 | 8.79672 | 1866 ft | 157 kts | 108° |
| 2026-04-26 15:48 | 41.98510 | 8.80898 | 1684 ft | 145 kts | 144° |
| 2026-04-26 15:49 | 41.97602 | 8.81574 | 1455 ft | 161 kts | 159° |
| 2026-04-26 15:49 | 41.96562 | 8.82158 | 997 ft | 161 kts | 167° |
| 2026-04-26 15:49 | 41.95509 | 8.82209 | 687 ft | 141 kts | 195° |
| 2026-04-26 15:49 | 41.94645 | 8.81708 | 455 ft | 132 kts | 209° |
| 2026-04-26 15:50 | 41.93847 | 8.81166 | 232 ft | 124 kts | 205° |
| 2026-04-26 15:50 | 41.93077 | 8.80677 | 86 ft | 121 kts | 205° |
| 2026-04-26 15:50 | 41.92442 | 8.80280 | 20 ft | 54 kts | 205° |
| 2026-04-26 15:50 | 41.92169 | 8.80106 | 20 ft | 49 kts | 205° |
| 2026-04-26 15:51 | 41.91904 | 8.79940 | 20 ft | 38 kts | 204° |
| 2026-04-26 15:51 | 41.91682 | 8.79805 | 16 ft | 32 kts | 205° |
| 2026-04-26 15:51 | 41.91494 | 8.79687 | 17 ft | 29 kts | 205° |
| 2026-04-26 15:51 | 41.91333 | 8.79584 | 20 ft | 21 kts | 205° |
| 2026-04-26 15:52 | 41.91246 | 8.79457 | 22 ft | 20 kts | 287° |
| 2026-04-26 15:52 | 41.91295 | 8.79396 | 22 ft | 0 kts | 330° |
| 2026-04-26 15:53 | 41.91313 | 8.79383 | 23 ft | 12 kts | 333° |
| 2026-04-26 15:53 | 41.91420 | 8.79335 | 28 ft | 19 kts | 356° |
| 2026-04-26 15:53 | 41.91558 | 8.79397 | 30 ft | 23 kts | 22° |
| 2026-04-26 15:53 | 41.91711 | 8.79488 | 26 ft | 26 kts | 26° |
| 2026-04-26 15:54 | 41.91886 | 8.79600 | 27 ft | 29 kts | 25° |
| 2026-04-26 15:54 | 41.92081 | 8.79720 | 28 ft | 32 kts | 25° |
| 2026-04-26 15:54 | 41.92247 | 8.79824 | 27 ft | 14 kts | 25° |
| 2026-04-26 15:54 | 41.92297 | 8.79759 | 28 ft | 12 kts | 277° |
| 2026-04-26 15:55 | 41.92304 | 8.79641 | 22 ft | 15 kts | 273° |
| 2026-04-26 15:55 | 41.92311 | 8.79504 | 20 ft | 15 kts | 276° |
| 2026-04-26 15:55 | 41.92323 | 8.79365 | 19 ft | 15 kts | 276° |
| 2026-04-26 15:55 | 41.92332 | 8.79228 | 18 ft | 14 kts | 274° |
| 2026-04-26 15:56 | 41.92336 | 8.79145 | 18 ft | 6 kts | 274° |
| 2026-04-26 15:56 | 41.92333 | 8.79092 | 18 ft | 6 kts | 240° |
| 2026-04-26 15:56 | 41.92298 | 8.79073 | 18 ft | 0 kts | 185° |
| 2026-04-26 15:57 | 41.92297 | 8.79072 | 18 ft | 0 kts | 187° |